createdAt,value
2019-02-08T00:01:48.100Z,13.12
2019-02-08T00:07:43.104Z,12.51
2019-02-08T00:13:38.096Z,12.7
2019-02-08T00:19:33.100Z,13.93
2019-02-08T00:25:28.155Z,14.21
2019-02-08T00:31:23.121Z,13.08
2019-02-08T00:37:18.106Z,14.11
2019-02-08T00:43:13.125Z,14.27
2019-02-08T00:49:08.176Z,15.24
2019-02-08T00:55:03.114Z,14.47
2019-02-08T01:00:58.141Z,14.46
2019-02-08T01:06:53.118Z,14.53
2019-02-08T01:12:48.132Z,13.35
2019-02-08T01:18:43.139Z,13.71
2019-02-08T01:24:38.119Z,13.33
2019-02-08T01:30:33.130Z,13.4
2019-02-08T01:36:28.143Z,13.84
2019-02-08T01:42:23.168Z,13.45
2019-02-08T01:48:18.162Z,13.39
2019-02-08T01:54:13.176Z,13.65
2019-02-08T02:00:08.147Z,16.09
2019-02-08T02:06:03.231Z,14.93
2019-02-08T02:11:58.199Z,15.49
2019-02-08T02:17:53.168Z,14.71
2019-02-08T02:23:48.156Z,13.51
2019-02-08T02:29:43.216Z,13.47
2019-02-08T02:35:38.205Z,8.9
2019-02-08T02:41:33.165Z,8.7
2019-02-08T02:47:28.165Z,8.8
2019-02-08T02:53:23.194Z,8.49
2019-02-08T02:59:18.214Z,9.07
2019-02-08T03:05:13.169Z,10.08
2019-02-08T03:11:08.200Z,9.79
2019-02-08T03:17:03.186Z,10.66
2019-02-08T03:22:58.230Z,9.7
2019-02-08T03:28:53.201Z,10.95
2019-02-08T03:34:48.225Z,11.77
2019-02-08T03:40:43.227Z,11.74
2019-02-08T03:46:38.230Z,11.87
2019-02-08T03:52:33.221Z,11.29
2019-02-08T03:58:28.243Z,12
2019-02-08T04:04:23.218Z,12.17
2019-02-08T04:10:18.245Z,11.88
2019-02-08T04:16:13.235Z,11.84
2019-02-08T04:22:08.253Z,13.51
2019-02-08T04:28:03.250Z,11.77
2019-02-08T04:33:58.237Z,11.12
2019-02-08T04:39:53.262Z,11.87
2019-02-08T04:45:48.301Z,10.83
2019-02-08T04:51:43.258Z,11.28
2019-02-08T04:57:39.535Z,11.33
2019-02-08T05:03:33.290Z,11.7
2019-02-08T05:09:28.265Z,11.69
2019-02-08T05:15:23.357Z,11.53
2019-02-08T05:21:18.289Z,11.32
2019-02-08T05:27:13.246Z,11.81
2019-02-08T05:33:08.278Z,10.52
2019-02-08T05:39:03.306Z,11.13
2019-02-08T05:44:58.277Z,11.58
2019-02-08T05:50:53.288Z,12.07
2019-02-08T05:56:48.345Z,11.17
2019-02-08T06:02:43.294Z,11.53
2019-02-08T06:08:38.358Z,12.27
2019-02-08T06:14:33.303Z,12.12
2019-02-08T06:20:28.281Z,10.77
2019-02-08T06:26:23.294Z,10.41
2019-02-08T06:32:18.330Z,12.16
2019-02-08T06:38:13.321Z,12.52
2019-02-08T06:44:08.317Z,11.81
2019-02-08T06:50:03.322Z,12.22
2019-02-08T06:55:58.329Z,12.87
2019-02-08T07:01:53.303Z,13.64
2019-02-08T07:07:48.317Z,12.11
2019-02-08T07:13:43.337Z,12.28
2019-02-08T07:19:38.378Z,12.17
2019-02-08T07:25:33.324Z,12.25
2019-02-08T07:31:28.351Z,12.3
2019-02-08T07:37:23.337Z,12.37
2019-02-08T07:43:18.349Z,14.97
2019-02-08T07:49:13.353Z,12.76
2019-02-08T07:55:08.359Z,11.11
2019-02-08T08:01:03.356Z,12.72
2019-02-08T08:06:58.340Z,13.23
2019-02-08T08:12:53.346Z,14.05
2019-02-08T08:18:48.392Z,11.43
2019-02-08T08:24:43.373Z,11.56
2019-02-08T08:30:38.363Z,11.41
2019-02-08T08:36:33.375Z,11.8
2019-02-08T08:42:28.373Z,11.33
2019-02-08T08:48:23.386Z,11.63
2019-02-08T08:54:18.382Z,10.83
2019-02-08T09:00:13.388Z,12.2
2019-02-08T09:06:08.676Z,12.93
2019-02-08T09:12:03.391Z,12.79
2019-02-08T09:17:58.419Z,14.52
2019-02-08T09:23:53.444Z,12.68
2019-02-08T09:29:48.399Z,11.34
2019-02-08T09:35:43.391Z,11.11
2019-02-08T09:41:38.393Z,10.19
2019-02-08T09:47:33.408Z,11.92
2019-02-08T09:53:28.411Z,9.43
2019-02-08T09:59:23.421Z,12.41
2019-02-08T10:05:18.443Z,9.47
2019-02-08T10:11:13.441Z,10.53
2019-02-08T10:17:08.443Z,10.33
2019-02-08T10:23:03.422Z,11.73
2019-02-08T10:28:58.444Z,11.86
2019-02-08T10:34:53.428Z,10.86
2019-02-08T10:40:48.485Z,10.08
2019-02-08T10:46:43.453Z,9.87
2019-02-08T10:52:38.454Z,8.58
2019-02-08T10:58:33.470Z,9.75
2019-02-08T11:04:28.453Z,9.09
2019-02-08T11:10:23.458Z,8.7
2019-02-08T11:16:18.507Z,8.55
2019-02-08T11:22:13.447Z,7.95
2019-02-08T11:28:08.480Z,8.46
2019-02-08T11:34:03.507Z,9
2019-02-08T11:39:58.473Z,8.03
2019-02-08T11:45:53.524Z,8.35
2019-02-08T11:51:48.479Z,8.43
2019-02-08T11:57:43.478Z,8.12
2019-02-08T12:03:38.522Z,8.02
2019-02-08T12:09:33.498Z,8.34
2019-02-08T12:15:28.514Z,8.03
2019-02-08T12:21:23.526Z,7.55
2019-02-08T12:27:18.538Z,7.67
2019-02-08T12:33:13.579Z,8.17
2019-02-08T12:39:08.486Z,7.84
2019-02-08T12:45:03.511Z,7.61
2019-02-08T12:50:58.548Z,7.1
2019-02-08T12:56:53.540Z,6.3
2019-02-08T13:02:48.534Z,6.49
2019-02-08T13:08:43.557Z,7.18
2019-02-08T13:14:38.566Z,6.8
2019-02-08T13:32:23.552Z,6.59
2019-02-08T13:32:23.595Z,6.95
2019-02-08T13:32:23.629Z,6.95
2019-02-08T13:38:18.613Z,6.92
2019-02-08T13:44:13.567Z,6.67
2019-02-08T13:50:08.569Z,6.16
2019-02-08T13:56:05.205Z,6.4
2019-02-08T14:01:58.579Z,6.59
2019-02-08T14:07:53.558Z,5.28
2019-02-08T14:13:48.578Z,5.38
2019-02-08T14:19:43.655Z,5.57
2019-02-08T14:25:38.606Z,4.83
2019-02-08T14:31:33.580Z,5.33
2019-02-08T14:37:28.595Z,4.77
2019-02-08T14:43:23.582Z,5.69
2019-02-08T14:49:18.605Z,5.99
2019-02-08T14:55:13.584Z,5.52
2019-02-08T15:01:08.590Z,6.67
2019-02-08T15:07:03.612Z,6.4
2019-02-08T15:13:00.270Z,6.52
2019-02-08T15:18:53.625Z,5.8
2019-02-08T15:24:48.638Z,5.86
2019-02-08T15:30:43.654Z,5.82
2019-02-08T15:36:38.613Z,5.52
2019-02-08T15:42:33.650Z,5.18
2019-02-08T15:48:28.686Z,5.05
2019-02-08T15:54:23.637Z,5.76
2019-02-08T16:00:18.649Z,5.55
2019-02-08T16:06:13.639Z,4.48
2019-02-08T16:18:03.665Z,5.5
2019-02-08T16:23:58.682Z,15.31
2019-02-08T16:29:53.672Z,23.1
2019-02-08T16:35:48.664Z,10.22
2019-02-08T16:41:43.681Z,7.72
2019-02-08T16:47:38.665Z,7.12
2019-02-08T16:53:33.689Z,10.31
2019-02-08T16:59:28.679Z,14.95
2019-02-08T17:05:23.724Z,13.13
2019-02-08T17:11:18.680Z,11.76
2019-02-08T17:17:13.711Z,10.8
2019-02-08T17:23:08.705Z,9.97
2019-02-08T17:29:03.702Z,11.56
2019-02-08T17:34:58.717Z,11.21
2019-02-08T17:40:53.714Z,10.95
2019-02-08T17:46:48.718Z,10.78
2019-02-08T17:52:43.756Z,11.32
2019-02-08T17:58:38.750Z,13.31
2019-02-08T18:04:33.709Z,18.22
2019-02-08T18:10:28.720Z,13.69
2019-02-08T18:16:23.756Z,14.69
2019-02-08T18:22:18.736Z,15.74
2019-02-08T18:28:13.743Z,18.8
2019-02-08T18:34:08.794Z,14.85
2019-02-08T18:40:03.795Z,13.97
2019-02-08T18:45:58.785Z,14.83
2019-02-08T18:51:53.723Z,14.57
2019-02-08T18:57:48.748Z,13.1
2019-02-08T19:03:43.780Z,12.36
2019-02-08T19:09:38.771Z,13.35
2019-02-08T19:15:33.815Z,12.16
2019-02-08T19:21:28.791Z,12.54
2019-02-08T19:27:23.790Z,12.68
2019-02-08T19:33:18.844Z,12.5
2019-02-08T19:39:13.796Z,12.72
2019-02-08T19:45:08.792Z,11.5
2019-02-08T19:51:03.822Z,11.71
2019-02-08T19:56:58.794Z,11.95
2019-02-08T20:02:53.821Z,12.04
2019-02-08T20:08:48.821Z,12.21
2019-02-08T20:14:43.789Z,11.34
2019-02-08T20:20:38.806Z,11.2
2019-02-08T20:26:33.902Z,12.49
2019-02-08T20:32:28.802Z,12.1
2019-02-08T20:38:23.822Z,12.31
2019-02-08T20:44:18.815Z,11.75
2019-02-08T20:50:13.813Z,13.14
2019-02-08T20:56:08.824Z,11.99
2019-02-08T21:02:03.859Z,13.61
2019-02-08T21:07:58.861Z,11.4
2019-02-08T21:13:53.857Z,10.73
2019-02-08T21:19:48.836Z,12.05
2019-02-08T21:25:50.351Z,11.97
2019-02-08T21:31:38.862Z,13.31
2019-02-08T21:37:33.864Z,12.26
2019-02-08T21:43:28.879Z,12.11
2019-02-08T21:49:23.874Z,14.65
2019-02-08T21:55:18.875Z,13.15
2019-02-08T22:01:13.856Z,12.58
2019-02-08T22:07:08.848Z,12.41
2019-02-08T22:13:03.847Z,12.05
2019-02-08T22:18:58.859Z,12.53
2019-02-08T22:24:53.891Z,11.03
2019-02-08T22:30:48.899Z,11.34
2019-02-08T22:36:43.877Z,12.68
2019-02-08T22:42:38.924Z,11.54
2019-02-08T22:48:33.887Z,11.92
2019-02-08T22:54:28.917Z,10.62
2019-02-08T23:00:23.874Z,9.56
2019-02-08T23:06:18.954Z,8.82
2019-02-08T23:12:13.899Z,9.66
2019-02-08T23:18:08.895Z,8.68
2019-02-08T23:24:03.907Z,8.69
2019-02-08T23:29:58.909Z,9.56
2019-02-08T23:35:53.932Z,8.96
2019-02-08T23:41:48.940Z,8.25
2019-02-08T23:47:43.912Z,9.04
2019-02-08T23:53:38.932Z,9.89
2019-02-08T23:59:38.043Z,9.76
